sensor_id;sensor_type;location;lat;lon;timestamp;temperature;humidity
77613;DHT22;66777;52.282;5.960;2023-04-15T00:02:00;4.30;78.20
77613;DHT22;66777;52.282;5.960;2023-04-15T00:04:26;4.20;78.30
77613;DHT22;66777;52.282;5.960;2023-04-15T00:06:52;4.10;78.60
77613;DHT22;66777;52.282;5.960;2023-04-15T00:09:19;4.10;78.60
77613;DHT22;66777;52.282;5.960;2023-04-15T00:11:45;4.00;79.20
77613;DHT22;66777;52.282;5.960;2023-04-15T00:14:12;4.10;79.00
77613;DHT22;66777;52.282;5.960;2023-04-15T00:16:37;4.20;79.20
77613;DHT22;66777;52.282;5.960;2023-04-15T00:19:03;4.10;79.10
77613;DHT22;66777;52.282;5.960;2023-04-15T00:21:29;4.20;78.70
77613;DHT22;66777;52.282;5.960;2023-04-15T00:23:54;4.20;77.00
77613;DHT22;66777;52.282;5.960;2023-04-15T00:26:20;3.90;77.30
77613;DHT22;66777;52.282;5.960;2023-04-15T00:28:46;3.70;77.60
77613;DHT22;66777;52.282;5.960;2023-04-15T00:31:12;3.60;77.90
77613;DHT22;66777;52.282;5.960;2023-04-15T00:33:38;3.50;77.80
77613;DHT22;66777;52.282;5.960;2023-04-15T00:36:05;3.50;77.90
77613;DHT22;66777;52.282;5.960;2023-04-15T00:38:31;3.50;78.40
77613;DHT22;66777;52.282;5.960;2023-04-15T00:40:57;3.50;79.00
77613;DHT22;66777;52.282;5.960;2023-04-15T00:43:22;3.50;79.10
77613;DHT22;66777;52.282;5.960;2023-04-15T00:45:51;3.50;79.10
77613;DHT22;66777;52.282;5.960;2023-04-15T00:48:18;3.50;78.50
77613;DHT22;66777;52.282;5.960;2023-04-15T00:50:44;3.50;78.40
77613;DHT22;66777;52.282;5.960;2023-04-15T00:53:10;3.40;78.60
77613;DHT22;66777;52.282;5.960;2023-04-15T00:55:36;3.30;78.80
77613;DHT22;66777;52.282;5.960;2023-04-15T00:58:02;3.30;78.90
77613;DHT22;66777;52.282;5.960;2023-04-15T01:00:28;3.30;79.10
77613;DHT22;66777;52.282;5.960;2023-04-15T01:02:54;3.30;78.60
77613;DHT22;66777;52.282;5.960;2023-04-15T01:05:20;3.30;78.70
77613;DHT22;66777;52.282;5.960;2023-04-15T01:07:46;3.20;79.50
77613;DHT22;66777;52.282;5.960;2023-04-15T01:10:13;3.30;80.10
77613;DHT22;66777;52.282;5.960;2023-04-15T01:12:39;3.30;80.20
77613;DHT22;66777;52.282;5.960;2023-04-15T01:15:05;3.40;80.20
77613;DHT22;66777;52.282;5.960;2023-04-15T01:17:32;3.40;80.20
77613;DHT22;66777;52.282;5.960;2023-04-15T01:19:58;3.40;79.60
77613;DHT22;66777;52.282;5.960;2023-04-15T01:22:24;3.40;79.10
77613;DHT22;66777;52.282;5.960;2023-04-15T01:24:58;3.30;79.40
77613;DHT22;66777;52.282;5.960;2023-04-15T01:27:26;3.30;79.80
77613;DHT22;66777;52.282;5.960;2023-04-15T01:29:52;3.30;79.90
77613;DHT22;66777;52.282;5.960;2023-04-15T01:32:18;3.30;80.50
77613;DHT22;66777;52.282;5.960;2023-04-15T01:34:44;3.30;80.40
77613;DHT22;66777;52.282;5.960;2023-04-15T01:37:10;3.30;79.90
77613;DHT22;66777;52.282;5.960;2023-04-15T01:39:36;3.30;80.00
77613;DHT22;66777;52.282;5.960;2023-04-15T01:42:01;3.30;80.10
77613;DHT22;66777;52.282;5.960;2023-04-15T01:44:27;3.30;80.30
77613;DHT22;66777;52.282;5.960;2023-04-15T01:46:53;3.30;80.50
77613;DHT22;66777;52.282;5.960;2023-04-15T01:49:18;3.30;81.00
77613;DHT22;66777;52.282;5.960;2023-04-15T01:51:44;3.30;80.80
77613;DHT22;66777;52.282;5.960;2023-04-15T01:54:09;3.30;80.90
77613;DHT22;66777;52.282;5.960;2023-04-15T01:56:35;3.40;80.90
77613;DHT22;66777;52.282;5.960;2023-04-15T01:59:01;3.50;80.90
77613;DHT22;66777;52.282;5.960;2023-04-15T02:01:28;3.40;80.50
77613;DHT22;66777;52.282;5.960;2023-04-15T02:03:53;3.30;80.70
77613;DHT22;66777;52.282;5.960;2023-04-15T02:06:19;3.30;80.80
77613;DHT22;66777;52.282;5.960;2023-04-15T02:08:45;3.30;81.00
77613;DHT22;66777;52.282;5.960;2023-04-15T02:11:10;3.30;81.20
77613;DHT22;66777;52.282;5.960;2023-04-15T02:13:36;3.30;81.20
77613;DHT22;66777;52.282;5.960;2023-04-15T02:16:02;3.30;81.10
77613;DHT22;66777;52.282;5.960;2023-04-15T02:18:28;3.30;81.60
77613;DHT22;66777;52.282;5.960;2023-04-15T02:20:53;3.30;81.40
77613;DHT22;66777;52.282;5.960;2023-04-15T02:23:21;3.30;81.60
77613;DHT22;66777;52.282;5.960;2023-04-15T02:25:46;3.40;81.60
77613;DHT22;66777;52.282;5.960;2023-04-15T02:28:12;3.40;81.70
77613;DHT22;66777;52.282;5.960;2023-04-15T02:30:37;3.40;81.70
77613;DHT22;66777;52.282;5.960;2023-04-15T02:33:05;3.40;81.80
77613;DHT22;66777;52.282;5.960;2023-04-15T02:35:31;3.40;81.70
77613;DHT22;66777;52.282;5.960;2023-04-15T02:37:57;3.40;81.70
77613;DHT22;66777;52.282;5.960;2023-04-15T02:40:22;3.40;81.80
77613;DHT22;66777;52.282;5.960;2023-04-15T02:42:48;3.50;81.90
77613;DHT22;66777;52.282;5.960;2023-04-15T02:45:14;3.50;82.10
77613;DHT22;66777;52.282;5.960;2023-04-15T02:47:39;3.50;82.10
77613;DHT22;66777;52.282;5.960;2023-04-15T02:50:10;3.50;82.40
77613;DHT22;66777;52.282;5.960;2023-04-15T02:52:39;3.50;82.20
77613;DHT22;66777;52.282;5.960;2023-04-15T02:55:05;3.50;82.20
77613;DHT22;66777;52.282;5.960;2023-04-15T02:57:30;3.50;82.40
77613;DHT22;66777;52.282;5.960;2023-04-15T02:59:56;3.50;82.70
77613;DHT22;66777;52.282;5.960;2023-04-15T03:02:21;3.50;82.70
77613;DHT22;66777;52.282;5.960;2023-04-15T03:04:47;3.60;82.90
77613;DHT22;66777;52.282;5.960;2023-04-15T03:07:13;3.60;82.70
77613;DHT22;66777;52.282;5.960;2023-04-15T03:09:38;3.50;82.80
77613;DHT22;66777;52.282;5.960;2023-04-15T03:12:05;3.50;82.60
77613;DHT22;66777;52.282;5.960;2023-04-15T03:14:31;3.50;82.60
77613;DHT22;66777;52.282;5.960;2023-04-15T03:16:56;3.60;82.80
77613;DHT22;66777;52.282;5.960;2023-04-15T03:19:24;3.50;83.00
77613;DHT22;66777;52.282;5.960;2023-04-15T03:21:50;3.50;82.90
77613;DHT22;66777;52.282;5.960;2023-04-15T03:24:16;3.60;82.90
77613;DHT22;66777;52.282;5.960;2023-04-15T03:26:42;3.60;83.00
77613;DHT22;66777;52.282;5.960;2023-04-15T03:29:07;3.50;83.00
77613;DHT22;66777;52.282;5.960;2023-04-15T03:31:33;3.50;83.10
77613;DHT22;66777;52.282;5.960;2023-04-15T03:33:58;3.50;83.20
77613;DHT22;66777;52.282;5.960;2023-04-15T03:36:25;3.50;83.30
77613;DHT22;66777;52.282;5.960;2023-04-15T03:38:51;3.50;83.70
77613;DHT22;66777;52.282;5.960;2023-04-15T03:41:17;3.50;83.60
77613;DHT22;66777;52.282;5.960;2023-04-15T03:43:43;3.50;83.70
77613;DHT22;66777;52.282;5.960;2023-04-15T03:46:08;3.50;83.60
77613;DHT22;66777;52.282;5.960;2023-04-15T03:48:34;3.50;83.80
77613;DHT22;66777;52.282;5.960;2023-04-15T03:50:59;3.60;83.80
77613;DHT22;66777;52.282;5.960;2023-04-15T03:53:25;3.50;83.70
77613;DHT22;66777;52.282;5.960;2023-04-15T03:55:50;3.50;83.40
77613;DHT22;66777;52.282;5.960;2023-04-15T03:58:16;3.50;83.90
77613;DHT22;66777;52.282;5.960;2023-04-15T04:00:42;3.50;83.90
77613;DHT22;66777;52.282;5.960;2023-04-15T04:03:07;3.50;83.80
77613;DHT22;66777;52.282;5.960;2023-04-15T04:05:33;3.60;84.10
77613;DHT22;66777;52.282;5.960;2023-04-15T04:08:02;3.60;84.00
77613;DHT22;66777;52.282;5.960;2023-04-15T04:10:27;3.50;84.00
77613;DHT22;66777;52.282;5.960;2023-04-15T04:12:53;3.50;84.00
77613;DHT22;66777;52.282;5.960;2023-04-15T04:15:19;3.50;84.20
77613;DHT22;66777;52.282;5.960;2023-04-15T04:17:44;3.50;84.20
77613;DHT22;66777;52.282;5.960;2023-04-15T04:20:10;3.50;84.30
77613;DHT22;66777;52.282;5.960;2023-04-15T04:22:37;3.50;84.50
77613;DHT22;66777;52.282;5.960;2023-04-15T04:25:04;3.50;84.50
77613;DHT22;66777;52.282;5.960;2023-04-15T04:27:30;3.50;84.70
77613;DHT22;66777;52.282;5.960;2023-04-15T04:29:55;3.50;84.60
77613;DHT22;66777;52.282;5.960;2023-04-15T04:32:21;3.50;84.70
77613;DHT22;66777;52.282;5.960;2023-04-15T04:34:46;3.50;84.80
77613;DHT22;66777;52.282;5.960;2023-04-15T04:37:13;3.50;85.10
77613;DHT22;66777;52.282;5.960;2023-04-15T04:39:38;3.50;84.90
77613;DHT22;66777;52.282;5.960;2023-04-15T04:42:04;3.50;84.80
77613;DHT22;66777;52.282;5.960;2023-04-15T04:44:30;3.50;84.90
77613;DHT22;66777;52.282;5.960;2023-04-15T04:46:55;3.50;85.00
77613;DHT22;66777;52.282;5.960;2023-04-15T04:49:21;3.50;84.90
77613;DHT22;66777;52.282;5.960;2023-04-15T04:51:47;3.40;85.00
77613;DHT22;66777;52.282;5.960;2023-04-15T04:54:13;3.40;85.20
77613;DHT22;66777;52.282;5.960;2023-04-15T04:56:38;3.50;85.80
77613;DHT22;66777;52.282;5.960;2023-04-15T04:59:04;3.50;85.50
77613;DHT22;66777;52.282;5.960;2023-04-15T05:01:30;3.50;85.50
77613;DHT22;66777;52.282;5.960;2023-04-15T05:03:55;3.50;85.40
77613;DHT22;66777;52.282;5.960;2023-04-15T05:06:21;3.50;85.60
77613;DHT22;66777;52.282;5.960;2023-04-15T05:08:47;3.50;85.80
77613;DHT22;66777;52.282;5.960;2023-04-15T05:11:13;3.50;85.70
77613;DHT22;66777;52.282;5.960;2023-04-15T05:13:38;3.50;85.50
77613;DHT22;66777;52.282;5.960;2023-04-15T05:16:05;3.50;85.50
77613;DHT22;66777;52.282;5.960;2023-04-15T05:18:30;3.50;85.40
77613;DHT22;66777;52.282;5.960;2023-04-15T05:20:56;3.50;85.30
77613;DHT22;66777;52.282;5.960;2023-04-15T05:23:22;3.60;85.40
77613;DHT22;66777;52.282;5.960;2023-04-15T05:25:48;3.60;85.30
77613;DHT22;66777;52.282;5.960;2023-04-15T05:28:13;3.70;85.30
77613;DHT22;66777;52.282;5.960;2023-04-15T05:30:39;3.70;85.30
77613;DHT22;66777;52.282;5.960;2023-04-15T05:33:04;3.80;85.40
77613;DHT22;66777;52.282;5.960;2023-04-15T05:35:30;3.90;85.40
77613;DHT22;66777;52.282;5.960;2023-04-15T05:37:56;4.00;85.40
77613;DHT22;66777;52.282;5.960;2023-04-15T05:40:21;4.10;85.40
77613;DHT22;66777;52.282;5.960;2023-04-15T05:42:47;4.10;85.40
77613;DHT22;66777;52.282;5.960;2023-04-15T05:45:26;4.30;84.70
77613;DHT22;66777;52.282;5.960;2023-04-15T05:47:51;4.40;84.60
77613;DHT22;66777;52.282;5.960;2023-04-15T05:50:19;4.50;84.60
77613;DHT22;66777;52.282;5.960;2023-04-15T05:52:45;4.70;84.10
77613;DHT22;66777;52.282;5.960;2023-04-15T05:55:10;4.90;83.70
77613;DHT22;66777;52.282;5.960;2023-04-15T05:57:37;5.00;83.00
77613;DHT22;66777;52.282;5.960;2023-04-15T06:00:03;5.30;82.50
77613;DHT22;66777;52.282;5.960;2023-04-15T06:02:29;5.50;82.00
77613;DHT22;66777;52.282;5.960;2023-04-15T06:04:56;5.70;81.00
77613;DHT22;66777;52.282;5.960;2023-04-15T06:07:22;6.00;80.70
77613;DHT22;66777;52.282;5.960;2023-04-15T06:09:48;6.20;79.90
77613;DHT22;66777;52.282;5.960;2023-04-15T06:12:14;6.40;79.30
77613;DHT22;66777;52.282;5.960;2023-04-15T06:14:40;6.60;78.50
77613;DHT22;66777;52.282;5.960;2023-04-15T06:17:05;6.70;78.20
77613;DHT22;66777;52.282;5.960;2023-04-15T06:19:32;6.80;78.10
77613;DHT22;66777;52.282;5.960;2023-04-15T06:21:57;6.90;77.80
77613;DHT22;66777;52.282;5.960;2023-04-15T06:24:23;7.00;77.60
77613;DHT22;66777;52.282;5.960;2023-04-15T06:26:49;7.00;77.60
77613;DHT22;66777;52.282;5.960;2023-04-15T06:29:15;7.00;77.80
77613;DHT22;66777;52.282;5.960;2023-04-15T06:31:40;7.00;77.70
77613;DHT22;66777;52.282;5.960;2023-04-15T06:34:06;7.00;77.90
77613;DHT22;66777;52.282;5.960;2023-04-15T06:36:32;7.00;78.10
77613;DHT22;66777;52.282;5.960;2023-04-15T06:38:58;7.10;77.90
77613;DHT22;66777;52.282;5.960;2023-04-15T06:41:23;7.20;77.60
77613;DHT22;66777;52.282;5.960;2023-04-15T06:43:49;7.40;77.20
77613;DHT22;66777;52.282;5.960;2023-04-15T06:46:15;7.50;77.10
77613;DHT22;66777;52.282;5.960;2023-04-15T06:48:40;7.50;76.80
77613;DHT22;66777;52.282;5.960;2023-04-15T06:51:06;7.50;76.80
77613;DHT22;66777;52.282;5.960;2023-04-15T06:53:32;7.50;76.70
77613;DHT22;66777;52.282;5.960;2023-04-15T06:55:58;7.60;76.60
77613;DHT22;66777;52.282;5.960;2023-04-15T06:58:23;7.60;76.60
77613;DHT22;66777;52.282;5.960;2023-04-15T07:00:49;7.60;76.50
77613;DHT22;66777;52.282;5.960;2023-04-15T07:03:15;7.70;76.30
77613;DHT22;66777;52.282;5.960;2023-04-15T07:05:41;7.80;76.20
77613;DHT22;66777;52.282;5.960;2023-04-15T07:08:06;7.80;76.10
77613;DHT22;66777;52.282;5.960;2023-04-15T07:10:33;8.00;75.80
77613;DHT22;66777;52.282;5.960;2023-04-15T07:12:58;8.00;75.70
77613;DHT22;66777;52.282;5.960;2023-04-15T07:15:24;8.20;75.20
77613;DHT22;66777;52.282;5.960;2023-04-15T07:17:50;8.30;74.60
77613;DHT22;66777;52.282;5.960;2023-04-15T07:20:15;8.40;74.10
77613;DHT22;66777;52.282;5.960;2023-04-15T07:22:41;8.60;73.80
77613;DHT22;66777;52.282;5.960;2023-04-15T07:25:07;8.80;73.10
77613;DHT22;66777;52.282;5.960;2023-04-15T07:27:33;9.00;73.00
77613;DHT22;66777;52.282;5.960;2023-04-15T07:29:59;9.20;72.00
77613;DHT22;66777;52.282;5.960;2023-04-15T07:32:24;9.40;72.10
77613;DHT22;66777;52.282;5.960;2023-04-15T07:34:50;9.60;71.20
77613;DHT22;66777;52.282;5.960;2023-04-15T07:37:16;10.00;70.30
77613;DHT22;66777;52.282;5.960;2023-04-15T07:39:41;10.20;69.60
77613;DHT22;66777;52.282;5.960;2023-04-15T07:42:08;10.60;69.50
77613;DHT22;66777;52.282;5.960;2023-04-15T07:44:33;10.80;67.90
77613;DHT22;66777;52.282;5.960;2023-04-15T07:47:01;11.00;67.30
77613;DHT22;66777;52.282;5.960;2023-04-15T07:49:26;11.20;66.70
77613;DHT22;66777;52.282;5.960;2023-04-15T07:51:52;11.40;66.00
77613;DHT22;66777;52.282;5.960;2023-04-15T07:54:17;11.50;65.90
77613;DHT22;66777;52.282;5.960;2023-04-15T07:56:43;11.60;65.30
77613;DHT22;66777;52.282;5.960;2023-04-15T07:59:08;11.80;65.70
77613;DHT22;66777;52.282;5.960;2023-04-15T08:01:35;12.00;64.50
77613;DHT22;66777;52.282;5.960;2023-04-15T08:04:01;12.10;64.10
77613;DHT22;66777;52.282;5.960;2023-04-15T08:06:27;12.20;63.30
77613;DHT22;66777;52.282;5.960;2023-04-15T08:08:53;12.20;63.30
77613;DHT22;66777;52.282;5.960;2023-04-15T08:11:19;12.00;63.00
77613;DHT22;66777;52.282;5.960;2023-04-15T08:13:46;12.30;62.70
77613;DHT22;66777;52.282;5.960;2023-04-15T08:16:20;12.40;62.00
77613;DHT22;66777;52.282;5.960;2023-04-15T08:18:48;12.50;61.50
77613;DHT22;66777;52.282;5.960;2023-04-15T08:21:14;12.60;62.20
77613;DHT22;66777;52.282;5.960;2023-04-15T08:23:42;12.70;61.50
77613;DHT22;66777;52.282;5.960;2023-04-15T08:26:08;12.80;59.60
77613;DHT22;66777;52.282;5.960;2023-04-15T08:28:34;12.90;60.90
77613;DHT22;66777;52.282;5.960;2023-04-15T08:31:01;13.00;61.10
77613;DHT22;66777;52.282;5.960;2023-04-15T08:33:26;13.20;60.70
77613;DHT22;66777;52.282;5.960;2023-04-15T08:35:53;13.50;59.20
77613;DHT22;66777;52.282;5.960;2023-04-15T08:38:18;13.60;59.50
77613;DHT22;66777;52.282;5.960;2023-04-15T08:40:44;13.50;59.90
77613;DHT22;66777;52.282;5.960;2023-04-15T08:43:14;13.50;59.30
77613;DHT22;66777;52.282;5.960;2023-04-15T08:45:43;13.60;59.80
77613;DHT22;66777;52.282;5.960;2023-04-15T08:48:13;13.60;59.50
77613;DHT22;66777;52.282;5.960;2023-04-15T08:50:41;13.50;58.80
77613;DHT22;66777;52.282;5.960;2023-04-15T08:53:06;13.50;59.30
77613;DHT22;66777;52.282;5.960;2023-04-15T08:55:35;13.60;59.90
77613;DHT22;66777;52.282;5.960;2023-04-15T08:58:04;13.90;59.10
77613;DHT22;66777;52.282;5.960;2023-04-15T09:00:31;13.90;58.70
77613;DHT22;66777;52.282;5.960;2023-04-15T09:02:58;14.10;59.10
77613;DHT22;66777;52.282;5.960;2023-04-15T09:05:24;14.20;59.00
77613;DHT22;66777;52.282;5.960;2023-04-15T09:07:50;14.60;58.10
77613;DHT22;66777;52.282;5.960;2023-04-15T09:10:16;15.00;57.90
77613;DHT22;66777;52.282;5.960;2023-04-15T09:12:42;15.20;57.40
77613;DHT22;66777;52.282;5.960;2023-04-15T09:15:10;15.60;55.90
77613;DHT22;66777;52.282;5.960;2023-04-15T09:17:42;15.80;55.30
77613;DHT22;66777;52.282;5.960;2023-04-15T09:20:15;15.80;55.80
77613;DHT22;66777;52.282;5.960;2023-04-15T09:22:45;15.80;55.50
77613;DHT22;66777;52.282;5.960;2023-04-15T09:27:56;15.80;55.10
77613;DHT22;66777;52.282;5.960;2023-04-15T09:30:22;15.40;55.80
77613;DHT22;66777;52.282;5.960;2023-04-15T09:32:55;15.80;55.30
77613;DHT22;66777;52.282;5.960;2023-04-15T09:35:22;15.90;55.30
77613;DHT22;66777;52.282;5.960;2023-04-15T09:37:51;15.90;55.00
77613;DHT22;66777;52.282;5.960;2023-04-15T09:40:38;15.80;54.30
77613;DHT22;66777;52.282;5.960;2023-04-15T09:43:04;15.60;55.10
77613;DHT22;66777;52.282;5.960;2023-04-15T09:45:33;15.50;53.90
77613;DHT22;66777;52.282;5.960;2023-04-15T09:50:41;16.60;53.90
77613;DHT22;66777;52.282;5.960;2023-04-15T09:53:10;16.80;53.50
77613;DHT22;66777;52.282;5.960;2023-04-15T09:55:36;16.80;53.50
77613;DHT22;66777;52.282;5.960;2023-04-15T09:58:08;16.40;54.40
77613;DHT22;66777;52.282;5.960;2023-04-15T10:00:34;16.40;54.00
77613;DHT22;66777;52.282;5.960;2023-04-15T10:03:00;16.40;52.80
77613;DHT22;66777;52.282;5.960;2023-04-15T10:05:27;16.50;54.40
77613;DHT22;66777;52.282;5.960;2023-04-15T10:07:53;16.50;54.30
77613;DHT22;66777;52.282;5.960;2023-04-15T10:10:19;16.40;54.10
77613;DHT22;66777;52.282;5.960;2023-04-15T10:12:45;16.90;52.80
77613;DHT22;66777;52.282;5.960;2023-04-15T10:15:14;17.00;53.00
77613;DHT22;66777;52.282;5.960;2023-04-15T10:17:43;16.40;53.10
77613;DHT22;66777;52.282;5.960;2023-04-15T10:20:09;16.00;53.70
77613;DHT22;66777;52.282;5.960;2023-04-15T10:22:36;15.60;54.60
77613;DHT22;66777;52.282;5.960;2023-04-15T10:25:02;15.80;54.30
77613;DHT22;66777;52.282;5.960;2023-04-15T10:27:29;16.00;53.80
77613;DHT22;66777;52.282;5.960;2023-04-15T10:29:56;16.50;53.00
77613;DHT22;66777;52.282;5.960;2023-04-15T10:32:23;18.00;50.50
77613;DHT22;66777;52.282;5.960;2023-04-15T10:34:50;21.00;45.80
77613;DHT22;66777;52.282;5.960;2023-04-15T10:37:33;22.30;44.60
77613;DHT22;66777;52.282;5.960;2023-04-15T10:39:59;24.60;40.90
77613;DHT22;66777;52.282;5.960;2023-04-15T10:42:32;24.50;41.00
77613;DHT22;66777;52.282;5.960;2023-04-15T10:44:59;23.10;42.10
77613;DHT22;66777;52.282;5.960;2023-04-15T10:47:24;21.30;44.00
77613;DHT22;66777;52.282;5.960;2023-04-15T10:50:00;22.30;42.50
77613;DHT22;66777;52.282;5.960;2023-04-15T10:52:28;23.20;41.60
77613;DHT22;66777;52.282;5.960;2023-04-15T10:55:11;24.00;41.00
77613;DHT22;66777;52.282;5.960;2023-04-15T10:57:39;22.50;41.40
77613;DHT22;66777;52.282;5.960;2023-04-15T11:00:10;21.90;41.40
77613;DHT22;66777;52.282;5.960;2023-04-15T11:02:55;23.10;41.40
77613;DHT22;66777;52.282;5.960;2023-04-15T11:06:08;22.90;40.50
77613;DHT22;66777;52.282;5.960;2023-04-15T11:08:09;22.00;42.60
77613;DHT22;66777;52.282;5.960;2023-04-15T11:13:14;19.90;45.40
77613;DHT22;66777;52.282;5.960;2023-04-15T11:15:44;21.10;44.70
77613;DHT22;66777;52.282;5.960;2023-04-15T11:18:21;22.80;42.60
77613;DHT22;66777;52.282;5.960;2023-04-15T11:20:49;24.80;40.20
77613;DHT22;66777;52.282;5.960;2023-04-15T11:26:15;25.20;39.30
77613;DHT22;66777;52.282;5.960;2023-04-15T11:28:44;23.90;40.80
77613;DHT22;66777;52.282;5.960;2023-04-15T11:31:15;23.50;41.10
77613;DHT22;66777;52.282;5.960;2023-04-15T11:33:52;23.30;41.30
77613;DHT22;66777;52.282;5.960;2023-04-15T11:36:17;22.70;42.00
77613;DHT22;66777;52.282;5.960;2023-04-15T11:38:45;21.90;42.60
77613;DHT22;66777;52.282;5.960;2023-04-15T11:41:11;22.40;42.30
77613;DHT22;66777;52.282;5.960;2023-04-15T11:43:38;22.00;42.60
77613;DHT22;66777;52.282;5.960;2023-04-15T11:46:04;21.10;43.50
77613;DHT22;66777;52.282;5.960;2023-04-15T11:48:30;20.70;43.50
77613;DHT22;66777;52.282;5.960;2023-04-15T11:51:06;20.70;43.90
77613;DHT22;66777;52.282;5.960;2023-04-15T11:53:42;21.50;42.50
77613;DHT22;66777;52.282;5.960;2023-04-15T11:56:10;23.00;41.40
77613;DHT22;66777;52.282;5.960;2023-04-15T11:58:36;22.50;41.70
77613;DHT22;66777;52.282;5.960;2023-04-15T12:01:03;21.50;43.00
77613;DHT22;66777;52.282;5.960;2023-04-15T12:03:30;20.20;44.00
77613;DHT22;66777;52.282;5.960;2023-04-15T12:06:09;19.00;46.20
77613;DHT22;66777;52.282;5.960;2023-04-15T12:09:08;18.30;47.30
77613;DHT22;66777;52.282;5.960;2023-04-15T12:11:48;17.90;48.30
77613;DHT22;66777;52.282;5.960;2023-04-15T12:16:44;18.80;46.70
77613;DHT22;66777;52.282;5.960;2023-04-15T12:19:13;21.90;43.70
77613;DHT22;66777;52.282;5.960;2023-04-15T12:21:42;24.80;39.70
77613;DHT22;66777;52.282;5.960;2023-04-15T12:24:10;22.80;40.60
77613;DHT22;66777;52.282;5.960;2023-04-15T12:26:48;21.10;43.20
77613;DHT22;66777;52.282;5.960;2023-04-15T12:29:16;19.70;44.90
77613;DHT22;66777;52.282;5.960;2023-04-15T12:34:47;18.70;46.40
77613;DHT22;66777;52.282;5.960;2023-04-15T12:37:13;19.00;46.50
77613;DHT22;66777;52.282;5.960;2023-04-15T12:39:47;20.70;45.00
77613;DHT22;66777;52.282;5.960;2023-04-15T12:42:16;21.10;42.80
77613;DHT22;66777;52.282;5.960;2023-04-15T12:44:42;19.90;44.90
77613;DHT22;66777;52.282;5.960;2023-04-15T12:47:09;18.60;46.40
77613;DHT22;66777;52.282;5.960;2023-04-15T12:49:35;18.30;47.10
77613;DHT22;66777;52.282;5.960;2023-04-15T12:52:02;17.80;47.90
77613;DHT22;66777;52.282;5.960;2023-04-15T12:54:29;17.40;48.50
77613;DHT22;66777;52.282;5.960;2023-04-15T12:56:55;16.70;49.60
77613;DHT22;66777;52.282;5.960;2023-04-15T12:59:21;16.10;50.80
77613;DHT22;66777;52.282;5.960;2023-04-15T13:01:48;16.00;51.20
77613;DHT22;66777;52.282;5.960;2023-04-15T13:04:15;15.70;51.80
77613;DHT22;66777;52.282;5.960;2023-04-15T13:06:41;15.20;53.00
77613;DHT22;66777;52.282;5.960;2023-04-15T13:09:07;15.00;53.90
77613;DHT22;66777;52.282;5.960;2023-04-15T13:11:33;15.00;53.60
77613;DHT22;66777;52.282;5.960;2023-04-15T13:14:04;14.90;53.50
77613;DHT22;66777;52.282;5.960;2023-04-15T13:16:30;14.60;54.10
77613;DHT22;66777;52.282;5.960;2023-04-15T13:18:58;14.40;55.00
77613;DHT22;66777;52.282;5.960;2023-04-15T13:21:24;14.40;55.10
77613;DHT22;66777;52.282;5.960;2023-04-15T13:23:49;14.50;55.40
77613;DHT22;66777;52.282;5.960;2023-04-15T13:26:16;14.40;55.10
77613;DHT22;66777;52.282;5.960;2023-04-15T13:28:42;14.30;55.40
77613;DHT22;66777;52.282;5.960;2023-04-15T13:31:07;14.00;55.70
77613;DHT22;66777;52.282;5.960;2023-04-15T13:33:33;13.90;56.30
77613;DHT22;66777;52.282;5.960;2023-04-15T13:35:58;13.90;56.40
77613;DHT22;66777;52.282;5.960;2023-04-15T13:38:24;14.00;56.00
77613;DHT22;66777;52.282;5.960;2023-04-15T13:40:50;13.70;56.60
77613;DHT22;66777;52.282;5.960;2023-04-15T13:43:16;13.50;57.20
77613;DHT22;66777;52.282;5.960;2023-04-15T13:45:42;13.30;58.30
77613;DHT22;66777;52.282;5.960;2023-04-15T13:48:10;13.30;57.80
77613;DHT22;66777;52.282;5.960;2023-04-15T13:50:36;13.10;58.00
77613;DHT22;66777;52.282;5.960;2023-04-15T13:53:02;13.10;58.20
77613;DHT22;66777;52.282;5.960;2023-04-15T13:55:27;13.10;58.20
77613;DHT22;66777;52.282;5.960;2023-04-15T13:57:53;13.10;58.10
77613;DHT22;66777;52.282;5.960;2023-04-15T14:00:20;13.10;58.20
77613;DHT22;66777;52.282;5.960;2023-04-15T14:02:45;12.80;59.10
77613;DHT22;66777;52.282;5.960;2023-04-15T14:05:11;12.70;59.40
77613;DHT22;66777;52.282;5.960;2023-04-15T14:07:37;12.50;60.40
77613;DHT22;66777;52.282;5.960;2023-04-15T14:10:03;12.30;60.20
77613;DHT22;66777;52.282;5.960;2023-04-15T14:12:28;12.20;60.60
77613;DHT22;66777;52.282;5.960;2023-04-15T14:14:54;12.10;61.20
77613;DHT22;66777;52.282;5.960;2023-04-15T14:17:19;12.00;61.50
77613;DHT22;66777;52.282;5.960;2023-04-15T14:19:45;12.00;61.70
77613;DHT22;66777;52.282;5.960;2023-04-15T14:22:20;11.90;62.20
77613;DHT22;66777;52.282;5.960;2023-04-15T14:24:46;11.70;62.80
77613;DHT22;66777;52.282;5.960;2023-04-15T14:27:14;11.40;63.70
77613;DHT22;66777;52.282;5.960;2023-04-15T14:29:39;11.40;64.50
77613;DHT22;66777;52.282;5.960;2023-04-15T14:32:05;11.30;64.60
77613;DHT22;66777;52.282;5.960;2023-04-15T14:34:31;11.10;65.10
77613;DHT22;66777;52.282;5.960;2023-04-15T14:36:57;11.10;65.60
77613;DHT22;66777;52.282;5.960;2023-04-15T14:39:23;11.20;65.40
77613;DHT22;66777;52.282;5.960;2023-04-15T14:41:48;11.30;64.60
77613;DHT22;66777;52.282;5.960;2023-04-15T14:44:14;11.50;64.40
77613;DHT22;66777;52.282;5.960;2023-04-15T14:46:40;11.70;63.70
77613;DHT22;66777;52.282;5.960;2023-04-15T14:49:06;12.00;62.80
77613;DHT22;66777;52.282;5.960;2023-04-15T14:51:32;12.00;62.60
77613;DHT22;66777;52.282;5.960;2023-04-15T14:53:58;11.80;62.90
77613;DHT22;66777;52.282;5.960;2023-04-15T14:56:24;11.70;63.70
77613;DHT22;66777;52.282;5.960;2023-04-15T14:58:49;11.50;64.20
77613;DHT22;66777;52.282;5.960;2023-04-15T15:01:17;11.40;64.70
77613;DHT22;66777;52.282;5.960;2023-04-15T15:03:43;11.20;65.00
77613;DHT22;66777;52.282;5.960;2023-04-15T15:06:09;11.20;65.50
77613;DHT22;66777;52.282;5.960;2023-04-15T15:08:35;11.20;65.30
77613;DHT22;66777;52.282;5.960;2023-04-15T15:11:01;11.60;64.60
77613;DHT22;66777;52.282;5.960;2023-04-15T15:13:27;12.20;63.20
77613;DHT22;66777;52.282;5.960;2023-04-15T15:15:53;12.50;62.00
77613;DHT22;66777;52.282;5.960;2023-04-15T15:18:18;13.00;61.20
77613;DHT22;66777;52.282;5.960;2023-04-15T15:20:44;12.90;60.90
77613;DHT22;66777;52.282;5.960;2023-04-15T15:23:09;12.50;61.60
77613;DHT22;66777;52.282;5.960;2023-04-15T15:25:35;12.10;62.60
77613;DHT22;66777;52.282;5.960;2023-04-15T15:28:01;11.70;63.30
77613;DHT22;66777;52.282;5.960;2023-04-15T15:30:27;11.70;63.60
77613;DHT22;66777;52.282;5.960;2023-04-15T15:32:52;11.70;63.20
77613;DHT22;66777;52.282;5.960;2023-04-15T15:35:19;11.50;63.60
77613;DHT22;66777;52.282;5.960;2023-04-15T15:37:45;11.50;63.90
77613;DHT22;66777;52.282;5.960;2023-04-15T15:40:11;11.50;64.00
77613;DHT22;66777;52.282;5.960;2023-04-15T15:42:36;11.50;64.00
77613;DHT22;66777;52.282;5.960;2023-04-15T15:45:03;11.50;63.70
77613;DHT22;66777;52.282;5.960;2023-04-15T15:47:29;11.40;64.10
77613;DHT22;66777;52.282;5.960;2023-04-15T15:49:55;11.50;64.30
77613;DHT22;66777;52.282;5.960;2023-04-15T15:52:20;11.50;64.40